HomeShort term forecast

Short term forecast

Graphical weather forecast for the next 48 hours for Montreal:
Short term forecast
This weather forecast is automatically refreshed every 3 hours.

Hourly Experimental Forecast for the next 48 hours ®

Overall summary: Clear throughout the day.

 Date & Hour   Temp   Feel   Baro   Hum   Speed & Bearing   Precipitation   Visibility   Cloud cover   Conditions 
 22/04/2018 - 03:00  1.8°C  0.2°C  1028.2 hPa  58%  5.8 km/h   --  16.1km  0%  Clear 
 22/04/2018 - 04:00  1.3°C  -0.2°C  1028.5 hPa  64%  5.4 km/h   0.01 mm/h  16.1km  0%  Clear 
 22/04/2018 - 05:00  0.9°C  -0.9°C  1028.9 hPa  69%  5.9 km/h   0.05 mm/h  16.1km  0%  Clear 
 22/04/2018 - 06:00  1.0°C  -0.7°C  1029.4 hPa  69%  5.6 km/h   0.02 mm/h  16.1km  0%  Clear 
 22/04/2018 - 07:00  1.7°C  0.4°C  1030.0 hPa  67%  5.0 km/h   --  16.1km  0%  Clear 
 22/04/2018 - 08:00  2.9°C  1.7°C  1030.2 hPa  63%  5.1 km/h   0.04 mm/h  16.1km  0%  Clear 
 22/04/2018 - 09:00  4.6°C  3.7°C  1030.4 hPa  58%  5.0 km/h   0.03 mm/h  16.1km  0%  Clear 
 22/04/2018 - 10:00  6.7°C  5.9°C  1030.4 hPa  53%  5.3 km/h   --  16.1km  0%  Clear 
 22/04/2018 - 11:00  8.5°C  7.8°C  1030.4 hPa  48%  5.8 km/h   0.03 mm/h  16.1km  0%  Clear 
 22/04/2018 - 12:00  9.8°C  9.1°C  1030.4 hPa  44%  7.0 km/h   0.01 mm/h  16.1km  0%  Clear 
 22/04/2018 - 13:00  10.7°C  10.7°C  1030.3 hPa  41%  8.2 km/h   0.01 mm/h  16.1km  0%  Clear 
 22/04/2018 - 14:00  11.4°C  11.4°C  1030.1 hPa  39%  9.1 km/h   --  16.1km  0%  Clear 
 22/04/2018 - 15:00  12.0°C  12.0°C  1030.0 hPa  38%  10.0 km/h   --  16.1km  0%  Clear 
 22/04/2018 - 16:00  12.8°C  12.8°C  1029.5 hPa  34%  11.7 km/h   --  16.1km  0%  Clear 
 22/04/2018 - 17:00  13.1°C  13.1°C  1029.4 hPa  34%  11.9 km/h   --  16.1km  0%  Clear 
 22/04/2018 - 18:00  12.6°C  12.6°C  1029.4 hPa  37%  10.7 km/h   --  16.1km  0%  Clear 
 22/04/2018 - 19:00  11.3°C  11.3°C  1029.5 hPa  43%  8.8 km/h   --  16.1km  0%  Clear 
 22/04/2018 - 20:00  9.8°C  9.0°C  1029.7 hPa  49%  7.3 km/h   --  16.1km  0%  Clear 
 22/04/2018 - 21:00  8.3°C  7.4°C  1030.2 hPa  55%  6.4 km/h   --  16.1km  0%  Clear 
 22/04/2018 - 22:00  6.8°C  5.8°C  1030.8 hPa  59%  6.0 km/h   --  16.1km  0%  Clear 
 22/04/2018 - 23:00  5.6°C  4.5°C  1031.3 hPa  63%  5.7 km/h   --  16.1km  0%  Clear 
 23/04/2018 - 00:00  4.6°C  3.6°C  1031.4 hPa  66%  5.0 km/h   --  16.1km  0%  Clear 
 23/04/2018 - 01:00  3.7°C  3.7°C  1031.5 hPa  69%  4.4 km/h   --  16.1km  0%  Clear 
 23/04/2018 - 02:00  3.1°C  3.1°C  1031.6 hPa  71%  4.0 km/h   --  16.1km  0%  Clear 
 23/04/2018 - 03:00  2.5°C  2.5°C  1031.7 hPa  72%  4.1 km/h   --  16.1km  1%  Clear 
 23/04/2018 - 04:00  2.2°C  2.2°C  1031.9 hPa  73%  4.3 km/h   --  16.1km  3%  Clear 
 23/04/2018 - 05:00  2.1°C  2.1°C  1032.1 hPa  73%  4.4 km/h   0.01 mm/h  16.1km  4%  Clear 
 23/04/2018 - 06:00  2.4°C  2.4°C  1032.5 hPa  72%  3.9 km/h   0.01 mm/h  16.1km  7%  Clear 
 23/04/2018 - 07:00  3.0°C  3.0°C  1033.0 hPa  71%  3.7 km/h   0.01 mm/h  16.1km  9%  Clear 
 23/04/2018 - 08:00  4.3°C  4.3°C  1033.3 hPa  67%  3.9 km/h   0.01 mm/h  16.1km  11%  Clear 
 23/04/2018 - 09:00  6.5°C  5.7°C  1033.2 hPa  61%  5.3 km/h   0.01 mm/h  16.1km  12%  Clear 
 23/04/2018 - 10:00  9.4°C  8.5°C  1033.1 hPa  54%  7.2 km/h   0.01 mm/h  16.1km  12%  Clear 
 23/04/2018 - 11:00  11.9°C  11.9°C  1032.7 hPa  48%  8.9 km/h   0.01 mm/h  16.1km  13%  Clear 
 23/04/2018 - 12:00  13.5°C  13.5°C  1032.1 hPa  43%  10.0 km/h   --  16.1km  15%  Clear 
 23/04/2018 - 13:00  14.5°C  14.5°C  1031.4 hPa  40%  10.8 km/h   --  16.1km  18%  Clear 
 23/04/2018 - 14:00  15.3°C  15.3°C  1030.7 hPa  37%  11.4 km/h   --  16.1km  23%  Clear 
 23/04/2018 - 15:00  16.0°C  16.0°C  1029.9 hPa  36%  11.7 km/h   --  16.1km  30%  Partly Cloudy 
 23/04/2018 - 16:00  16.7°C  16.7°C  1029.1 hPa  34%  11.6 km/h   --  16.1km  38%  Partly Cloudy 
 23/04/2018 - 17:00  17.0°C  17.0°C  1028.4 hPa  34%  11.4 km/h   --  16.1km  43%  Partly Cloudy 
 23/04/2018 - 18:00  16.5°C  16.5°C  1028.0 hPa  36%  10.7 km/h   --  16.1km  39%  Partly Cloudy 
 23/04/2018 - 19:00  15.2°C  15.2°C  1027.8 hPa  41%  9.7 km/h   --  16.1km  30%  Partly Cloudy 
 23/04/2018 - 20:00  13.6°C  13.6°C  1027.6 hPa  47%  9.1 km/h   --  16.1km  22%  Clear 
 23/04/2018 - 21:00  12.0°C  12.0°C  1027.5 hPa  52%  9.4 km/h   --  16.1km  17%  Clear 
 23/04/2018 - 22:00  10.6°C  10.6°C  1027.4 hPa  56%  10.0 km/h   --  16.1km  14%  Clear 
 23/04/2018 - 23:00  9.3°C  7.8°C  1027.4 hPa  59%  10.2 km/h   --  16.1km  14%  Clear 
 24/04/2018 - 00:00  8.1°C  6.5°C  1027.2 hPa  64%  9.5 km/h   --  16.1km  17%  Clear 
 24/04/2018 - 01:00  7.1°C  5.5°C  1027.0 hPa  67%  8.4 km/h   --  16.1km  22%  Clear 
 24/04/2018 - 02:00  6.1°C  4.5°C  1026.8 hPa  70%  7.5 km/h   --  16.1km  30%  Partly Cloudy 
Test

 

Past weather and reports

Past weatherFind in this section the past weather conditions, weather archive, graphics, reports and statistics.

Current conditions

Current weather condition for MontrealAll you need to know about the current weather conditions for Montreal. Weather data is updated every 10 minutes.

Weather forecast

Current Montreal weatherSince 2004, celinium.com website has provided accurate weather forecast for Montreal's island.